createdAt,value
2022-09-18T00:02:29.015Z,100.00
2022-09-18T00:04:58.572Z,100.00
2022-09-18T00:07:27.811Z,100.00
2022-09-18T00:09:57.227Z,100.00
2022-09-18T00:12:26.495Z,100.00
2022-09-18T00:14:56.692Z,100.00
2022-09-18T00:17:25.892Z,100.00
2022-09-18T00:19:55.144Z,100.00
2022-09-18T00:22:24.348Z,100.00
2022-09-18T00:24:53.738Z,100.00
2022-09-18T00:27:22.990Z,100.00
2022-09-18T00:29:52.360Z,100.00
2022-09-18T00:32:21.586Z,100.00
2022-09-18T00:34:51.413Z,100.00
2022-09-18T00:37:20.836Z,100.00
2022-09-18T00:39:50.065Z,100.00
2022-09-18T00:42:21.254Z,100.00
2022-09-18T00:44:52.296Z,100.00
2022-09-18T00:47:27.542Z,100.00
2022-09-18T00:49:59.930Z,100.00
2022-09-18T00:52:32.330Z,100.00
2022-09-18T00:55:04.396Z,100.00
2022-09-18T00:57:35.894Z,100.00
2022-09-18T01:00:09.189Z,100.00
2022-09-18T01:02:39.950Z,100.00
2022-09-18T01:05:11.136Z,100.00
2022-09-18T01:07:46.512Z,100.00
2022-09-18T01:10:37.277Z,100.00
2022-09-18T01:13:18.252Z,100.00
2022-09-18T01:16:14.654Z,100.00
2022-09-18T01:18:50.024Z,100.00
2022-09-18T01:21:21.301Z,100.00
2022-09-18T01:24:13.551Z,100.00
2022-09-18T01:27:02.829Z,100.00
2022-09-18T01:29:58.189Z,100.00
2022-09-18T01:32:33.027Z,100.00
2022-09-18T01:35:40.986Z,100.00
2022-09-18T01:38:04.943Z,100.00
2022-09-18T01:40:41.448Z,100.00
2022-09-18T01:43:12.345Z,100.00
2022-09-18T01:45:51.215Z,100.00
2022-09-18T01:48:27.812Z,100.00
2022-09-18T01:51:04.244Z,100.00
2022-09-18T01:53:36.832Z,100.00
2022-09-18T01:56:09.040Z,100.00
2022-09-18T01:58:39.418Z,100.00
2022-09-18T02:01:13.288Z,100.00
2022-09-18T02:03:48.805Z,100.00
2022-09-18T02:06:21.358Z,100.00
2022-09-18T02:08:55.262Z,100.00
2022-09-18T02:11:25.138Z,100.00
2022-09-18T02:14:17.682Z,100.00
2022-09-18T02:17:09.471Z,100.00
2022-09-18T02:19:44.081Z,100.00
2022-09-18T02:22:16.125Z,100.00
2022-09-18T02:24:49.546Z,100.00
2022-09-18T02:27:20.069Z,100.00
2022-09-18T02:29:51.220Z,100.00
2022-09-18T02:32:20.532Z,100.00
2022-09-18T02:34:50.257Z,100.00
2022-09-18T02:37:35.017Z,100.00
2022-09-18T02:40:19.601Z,100.00
2022-09-18T02:43:11.826Z,100.00
2022-09-18T02:45:50.395Z,100.00
2022-09-18T02:48:44.026Z,100.00
2022-09-18T02:51:17.268Z,100.00
2022-09-18T02:53:57.710Z,100.00
2022-09-18T02:56:45.219Z,100.00
2022-09-18T02:59:17.764Z,100.00
2022-09-18T03:01:49.104Z,100.00
2022-09-18T03:04:26.196Z,100.00
2022-09-18T03:06:59.955Z,100.00
2022-09-18T03:09:30.207Z,100.00
2022-09-18T03:11:59.528Z,100.00
2022-09-18T03:14:29.368Z,100.00
2022-09-18T03:16:58.624Z,100.00
2022-09-18T03:19:27.933Z,100.00
2022-09-18T03:21:58.948Z,100.00
2022-09-18T03:24:30.095Z,100.00
2022-09-18T03:26:59.802Z,100.00
2022-09-18T03:29:30.268Z,100.00
2022-09-18T03:32:00.723Z,100.00
2022-09-18T03:34:30.425Z,100.00
2022-09-18T03:36:59.828Z,100.00
2022-09-18T03:39:29.315Z,100.00
2022-09-18T03:41:59.905Z,100.00
2022-09-18T03:44:29.615Z,100.00
2022-09-18T03:47:00.746Z,100.00
2022-09-18T03:49:30.241Z,100.00
2022-09-18T03:51:59.437Z,100.00
2022-09-18T03:54:30.417Z,100.00
2022-09-18T03:57:07.411Z,100.00
2022-09-18T03:59:56.805Z,100.00
2022-09-18T04:02:44.886Z,100.00
2022-09-18T04:05:32.424Z,100.00
2022-09-18T04:08:19.214Z,100.00
2022-09-18T04:10:50.192Z,100.00
2022-09-18T04:13:19.976Z,100.00
2022-09-18T04:15:50.436Z,100.00
2022-09-18T04:18:20.107Z,100.00
2022-09-18T04:20:51.303Z,100.00
2022-09-18T04:23:20.847Z,100.00
2022-09-18T04:25:50.356Z,100.00
2022-09-18T04:28:20.299Z,100.00
2022-09-18T04:30:49.960Z,100.00
2022-09-18T04:33:19.389Z,100.00
2022-09-18T04:35:49.365Z,100.00
2022-09-18T04:38:19.446Z,100.00
2022-09-18T04:40:51.897Z,100.00
2022-09-18T04:43:21.616Z,100.00
2022-09-18T04:45:51.168Z,100.00
2022-09-18T04:48:21.354Z,100.00
2022-09-18T04:50:51.174Z,100.00
2022-09-18T04:53:20.919Z,100.00
2022-09-18T04:55:50.456Z,100.00
2022-09-18T04:58:21.041Z,100.00
2022-09-18T05:00:52.068Z,100.00
2022-09-18T05:03:22.887Z,100.00
2022-09-18T05:05:52.724Z,100.00
2022-09-18T05:08:23.417Z,100.00
2022-09-18T05:10:53.433Z,100.00
2022-09-18T05:13:24.103Z,100.00
2022-09-18T05:15:59.003Z,100.00
2022-09-18T05:18:30.336Z,100.00
2022-09-18T05:21:04.901Z,100.00
2022-09-18T05:23:35.082Z,100.00
2022-09-18T05:26:04.440Z,100.00
2022-09-18T05:28:34.237Z,100.00
2022-09-18T05:31:04.376Z,100.00
2022-09-18T05:33:36.664Z,100.00
2022-09-18T05:36:06.418Z,100.00
2022-09-18T05:38:36.085Z,100.00
2022-09-18T05:41:06.978Z,100.00
2022-09-18T05:43:36.370Z,100.00
2022-09-18T05:46:07.555Z,100.00
2022-09-18T05:48:38.762Z,100.00
2022-09-18T05:51:08.777Z,100.00
2022-09-18T05:53:38.150Z,100.00
2022-09-18T05:56:09.092Z,100.00
2022-09-18T05:58:38.371Z,100.00
2022-09-18T06:01:07.790Z,100.00
2022-09-18T06:03:38.888Z,100.00
2022-09-18T06:06:08.555Z,100.00
2022-09-18T06:08:38.346Z,100.00
2022-09-18T06:11:07.792Z,100.00
2022-09-18T06:13:37.335Z,100.00
2022-09-18T06:16:07.262Z,100.00
2022-09-18T06:18:38.461Z,100.00
2022-09-18T06:21:08.914Z,100.00
2022-09-18T06:23:38.254Z,100.00
2022-09-18T06:26:14.044Z,100.00
2022-09-18T06:28:40.416Z,100.00
2022-09-18T06:31:11.427Z,100.00
2022-09-18T06:33:57.593Z,100.00
2022-09-18T06:36:26.879Z,100.00
2022-09-18T06:39:15.975Z,100.00
2022-09-18T06:41:46.733Z,100.00
2022-09-18T06:44:20.929Z,100.00
2022-09-18T06:46:57.904Z,100.00
2022-09-18T06:49:29.167Z,100.00
2022-09-18T06:51:58.504Z,100.00
2022-09-18T06:54:27.804Z,100.00
2022-09-18T06:56:57.153Z,100.00
2022-09-18T06:59:26.859Z,100.00
2022-09-18T07:01:56.114Z,100.00
2022-09-18T07:04:36.511Z,100.00
2022-09-18T07:07:06.245Z,100.00
2022-09-18T07:09:35.828Z,100.00
2022-09-18T07:12:07.377Z,100.00
2022-09-18T07:14:44.276Z,100.00
2022-09-18T07:17:18.576Z,100.00
2022-09-18T07:19:47.045Z,100.00
2022-09-18T07:22:17.867Z,100.00
2022-09-18T07:24:48.768Z,100.00
2022-09-18T07:27:18.061Z,100.00
2022-09-18T07:29:48.604Z,100.00
2022-09-18T07:32:21.173Z,99.32
2022-09-18T07:34:51.084Z,99.91
2022-09-18T07:37:25.456Z,98.24
2022-09-18T07:39:56.564Z,98.51
2022-09-18T07:42:28.311Z,98.80
2022-09-18T07:44:57.796Z,98.99
2022-09-18T07:47:28.343Z,100.00
2022-09-18T07:49:59.275Z,100.00
2022-09-18T07:52:29.091Z,100.00
2022-09-18T07:54:59.243Z,100.00
2022-09-18T07:57:30.899Z,100.00
2022-09-18T08:00:10.258Z,100.00
2022-09-18T08:02:41.877Z,100.00
2022-09-18T08:05:13.256Z,100.00
2022-09-18T08:07:45.168Z,100.00
2022-09-18T08:10:19.167Z,100.00
2022-09-18T08:13:06.527Z,100.00
2022-09-18T08:15:40.481Z,100.00
2022-09-18T08:18:14.734Z,100.00
2022-09-18T08:20:59.004Z,100.00
2022-09-18T08:23:30.138Z,100.00
2022-09-18T08:26:04.894Z,100.00
2022-09-18T08:28:34.280Z,100.00
2022-09-18T08:31:04.927Z,100.00
2022-09-18T08:33:34.248Z,100.00
2022-09-18T08:36:03.781Z,98.68
2022-09-18T08:38:34.843Z,99.35
2022-09-18T08:41:12.744Z,100.00
2022-09-18T08:44:07.328Z,97.62
2022-09-18T08:46:48.387Z,99.91
2022-09-18T08:49:37.675Z,98.46
2022-09-18T08:52:17.546Z,94.90
2022-09-18T08:54:51.620Z,96.04
2022-09-18T08:57:30.466Z,99.22
2022-09-18T09:00:23.846Z,100.00
2022-09-18T09:02:58.455Z,100.00
2022-09-18T09:05:31.113Z,99.70
2022-09-18T09:08:28.494Z,99.99
2022-09-18T09:11:12.288Z,100.00
2022-09-18T09:13:56.666Z,100.00
2022-09-18T09:16:33.633Z,100.00
2022-09-18T09:19:05.546Z,100.00
2022-09-18T09:22:01.876Z,100.00
2022-09-18T09:24:35.761Z,97.37
2022-09-18T09:27:27.905Z,87.21
2022-09-18T09:30:04.753Z,87.74
2022-09-18T09:32:42.586Z,87.57
2022-09-18T09:35:43.235Z,89.35
2022-09-18T09:38:33.037Z,86.20
2022-09-18T09:41:08.120Z,87.93
2022-09-18T09:43:47.343Z,86.34
2022-09-18T09:46:53.156Z,86.99
2022-09-18T09:49:28.402Z,86.07
2022-09-18T09:52:11.507Z,86.92
2022-09-18T09:54:41.270Z,84.54
2022-09-18T09:57:26.734Z,85.15
2022-09-18T10:00:18.066Z,85.40
2022-09-18T10:02:55.238Z,84.69
2022-09-18T10:05:28.558Z,83.46
2022-09-18T10:08:01.623Z,80.20
2022-09-18T10:10:37.534Z,81.86
2022-09-18T10:13:12.783Z,81.02
2022-09-18T10:15:47.952Z,77.98
2022-09-18T10:18:33.950Z,79.39
2022-09-18T10:21:14.542Z,79.68
2022-09-18T10:23:46.028Z,81.38
2022-09-18T10:26:33.094Z,84.04
2022-09-18T10:29:02.366Z,84.35
2022-09-18T10:31:53.334Z,84.50
2022-09-18T10:34:42.320Z,84.97
2022-09-18T10:37:33.452Z,87.22
2022-09-18T10:40:06.900Z,89.53
2022-09-18T10:42:38.218Z,100.00
2022-09-18T10:45:24.213Z,100.00
2022-09-18T10:48:07.546Z,100.00
2022-09-18T10:50:37.635Z,100.00
2022-09-18T10:53:22.930Z,100.00
2022-09-18T10:55:55.802Z,100.00
2022-09-18T10:58:26.860Z,100.00
2022-09-18T11:00:56.713Z,100.00
2022-09-18T11:03:50.816Z,100.00
2022-09-18T11:06:26.756Z,100.00
2022-09-18T11:09:00.305Z,100.00
2022-09-18T11:11:32.394Z,100.00
2022-09-18T11:14:05.709Z,100.00
2022-09-18T11:16:44.549Z,100.00
2022-09-18T11:19:26.729Z,100.00
2022-09-18T11:21:58.968Z,100.00
2022-09-18T11:24:34.703Z,100.00
2022-09-18T11:27:08.838Z,100.00
2022-09-18T11:29:39.331Z,100.00
2022-09-18T11:32:22.223Z,100.00
2022-09-18T11:34:54.254Z,100.00
2022-09-18T11:37:32.737Z,100.00
2022-09-18T11:40:08.375Z,100.00
2022-09-18T11:42:47.014Z,100.00
2022-09-18T11:45:31.376Z,100.00
2022-09-18T11:48:07.297Z,100.00
2022-09-18T11:50:38.269Z,100.00
2022-09-18T11:53:13.108Z,100.00
2022-09-18T11:56:00.003Z,100.00
2022-09-18T11:58:41.311Z,100.00
2022-09-18T12:01:16.623Z,100.00
2022-09-18T12:04:17.691Z,100.00
2022-09-18T12:06:53.829Z,100.00
2022-09-18T12:09:25.014Z,100.00
2022-09-18T12:12:10.048Z,100.00
2022-09-18T12:14:52.040Z,100.00
2022-09-18T12:17:34.142Z,100.00
2022-09-18T12:20:07.128Z,100.00
2022-09-18T12:22:42.655Z,100.00
2022-09-18T12:25:14.181Z,100.00
2022-09-18T12:28:09.149Z,100.00
2022-09-18T12:30:55.114Z,100.00
2022-09-18T12:33:30.163Z,100.00
2022-09-18T12:36:21.281Z,100.00
2022-09-18T12:39:03.418Z,100.00
2022-09-18T12:41:36.063Z,100.00
2022-09-18T12:44:23.534Z,100.00
2022-09-18T12:47:18.582Z,100.00
2022-09-18T12:49:56.881Z,100.00
2022-09-18T12:52:55.172Z,100.00
2022-09-18T12:55:30.415Z,100.00
2022-09-18T12:58:14.867Z,100.00
2022-09-18T13:00:47.185Z,100.00
2022-09-18T13:03:22.212Z,100.00
2022-09-18T13:05:59.252Z,100.00
2022-09-18T13:08:37.237Z,100.00
2022-09-18T13:11:12.278Z,100.00
2022-09-18T13:14:00.105Z,100.00
2022-09-18T13:16:50.373Z,100.00
2022-09-18T13:19:33.756Z,100.00
2022-09-18T13:22:08.278Z,100.00
2022-09-18T13:24:37.995Z,100.00
2022-09-18T13:27:13.229Z,100.00
2022-09-18T13:29:56.928Z,100.00
2022-09-18T13:32:37.634Z,100.00
2022-09-18T13:35:09.203Z,100.00
2022-09-18T13:37:38.813Z,100.00
2022-09-18T13:40:27.910Z,100.00
2022-09-18T13:42:57.842Z,100.00
2022-09-18T13:45:28.611Z,100.00
2022-09-18T13:48:09.947Z,100.00
2022-09-18T13:50:42.443Z,100.00
2022-09-18T13:53:14.837Z,100.00
2022-09-18T13:55:51.029Z,100.00
2022-09-18T13:58:35.439Z,100.00
2022-09-18T14:01:09.580Z,100.00
2022-09-18T14:03:42.427Z,100.00
2022-09-18T14:06:37.880Z,100.00
2022-09-18T14:09:44.598Z,100.00
2022-09-18T14:12:14.776Z,100.00
2022-09-18T14:14:45.637Z,100.00
2022-09-18T14:17:16.331Z,100.00
2022-09-18T14:19:48.167Z,100.00
2022-09-18T14:22:26.650Z,100.00
2022-09-18T14:25:00.641Z,100.00
2022-09-18T14:27:42.268Z,100.00
2022-09-18T14:30:21.021Z,100.00
2022-09-18T14:33:05.295Z,100.00
2022-09-18T14:35:43.285Z,100.00
2022-09-18T14:38:30.138Z,100.00
2022-09-18T14:41:02.604Z,100.00
2022-09-18T14:43:32.060Z,100.00
2022-09-18T14:46:01.473Z,100.00
2022-09-18T14:48:34.163Z,100.00
2022-09-18T14:51:09.440Z,100.00
2022-09-18T14:53:49.949Z,100.00
2022-09-18T14:56:23.625Z,100.00
2022-09-18T14:58:53.270Z,100.00
2022-09-18T15:01:34.633Z,100.00
2022-09-18T15:04:05.886Z,100.00
2022-09-18T15:06:49.860Z,100.00
2022-09-18T15:09:28.252Z,100.00
2022-09-18T15:12:02.669Z,100.00
2022-09-18T15:14:31.482Z,100.00
2022-09-18T15:17:02.310Z,100.00
2022-09-18T15:19:32.757Z,100.00
2022-09-18T15:22:02.351Z,100.00
2022-09-18T15:24:31.883Z,100.00
2022-09-18T15:27:03.515Z,100.00
2022-09-18T15:29:36.234Z,100.00
2022-09-18T15:32:05.997Z,100.00
2022-09-18T15:34:43.826Z,100.00
2022-09-18T15:37:16.193Z,100.00
2022-09-18T15:39:48.865Z,100.00
2022-09-18T15:42:18.993Z,100.00
2022-09-18T15:44:54.300Z,100.00
2022-09-18T15:47:33.141Z,100.00
2022-09-18T15:50:18.250Z,100.00
2022-09-18T15:53:00.975Z,100.00
2022-09-18T15:55:33.339Z,100.00
2022-09-18T15:58:05.568Z,100.00
2022-09-18T16:00:37.403Z,100.00
2022-09-18T16:03:09.326Z,100.00
2022-09-18T16:05:40.604Z,100.00
2022-09-18T16:08:21.016Z,100.00
2022-09-18T16:10:52.716Z,100.00
2022-09-18T16:13:25.285Z,100.00
2022-09-18T16:16:14.532Z,100.00
2022-09-18T16:18:52.452Z,100.00
2022-09-18T16:21:22.679Z,100.00
2022-09-18T16:23:59.194Z,100.00
2022-09-18T16:26:33.408Z,100.00
2022-09-18T16:29:05.131Z,100.00
2022-09-18T16:31:37.671Z,100.00
2022-09-18T16:34:07.921Z,100.00
2022-09-18T16:36:39.518Z,100.00
2022-09-18T16:39:14.674Z,100.00
2022-09-18T16:41:44.473Z,100.00
2022-09-18T16:44:15.375Z,100.00
2022-09-18T16:46:53.221Z,100.00
2022-09-18T16:49:27.581Z,100.00
2022-09-18T16:51:57.762Z,100.00
2022-09-18T16:54:27.150Z,100.00
2022-09-18T16:57:10.984Z,100.00
2022-09-18T16:59:42.397Z,100.00
2022-09-18T17:02:14.214Z,100.00
2022-09-18T17:04:43.408Z,100.00
2022-09-18T17:07:12.802Z,100.00
2022-09-18T17:09:42.005Z,100.00
2022-09-18T17:12:11.244Z,100.00
2022-09-18T17:14:41.334Z,100.00
2022-09-18T17:17:11.612Z,100.00
2022-09-18T17:19:40.933Z,100.00
2022-09-18T17:22:10.371Z,100.00
2022-09-18T17:24:39.743Z,100.00
2022-09-18T17:27:09.375Z,100.00
2022-09-18T17:29:39.999Z,100.00
2022-09-18T17:32:09.358Z,100.00
2022-09-18T17:34:38.636Z,100.00
2022-09-18T17:37:07.889Z,100.00
2022-09-18T17:39:37.084Z,100.00
2022-09-18T17:42:06.614Z,100.00
2022-09-18T17:44:37.131Z,100.00
2022-09-18T17:47:06.577Z,100.00
2022-09-18T17:49:36.032Z,100.00
2022-09-18T17:52:05.892Z,100.00
2022-09-18T17:54:36.128Z,100.00
2022-09-18T17:57:14.744Z,100.00
2022-09-18T17:59:45.200Z,100.00
2022-09-18T18:02:14.857Z,100.00
2022-09-18T18:04:44.311Z,100.00
2022-09-18T18:07:13.762Z,100.00
2022-09-18T18:09:43.249Z,100.00
2022-09-18T18:12:12.821Z,100.00
2022-09-18T18:14:42.233Z,100.00
2022-09-18T18:17:12.941Z,100.00
2022-09-18T18:19:42.853Z,100.00
2022-09-18T18:22:12.130Z,100.00
2022-09-18T18:24:41.531Z,100.00
2022-09-18T18:27:10.737Z,100.00
2022-09-18T18:29:41.113Z,100.00
2022-09-18T18:32:11.135Z,100.00
2022-09-18T18:34:40.495Z,100.00
2022-09-18T18:37:09.750Z,100.00
2022-09-18T18:39:39.223Z,100.00
2022-09-18T18:42:08.617Z,100.00
2022-09-18T18:44:38.421Z,100.00
2022-09-18T18:47:07.848Z,100.00
2022-09-18T18:49:37.908Z,100.00
2022-09-18T18:52:07.361Z,100.00
2022-09-18T18:54:36.661Z,100.00
2022-09-18T18:57:06.169Z,100.00
2022-09-18T18:59:35.542Z,100.00
2022-09-18T19:02:05.841Z,100.00
2022-09-18T19:04:36.309Z,100.00
2022-09-18T19:07:06.386Z,100.00
2022-09-18T19:09:35.839Z,100.00
2022-09-18T19:12:05.213Z,100.00
2022-09-18T19:14:36.186Z,100.00
2022-09-18T19:17:05.812Z,100.00
2022-09-18T19:19:35.317Z,100.00
2022-09-18T19:22:04.558Z,100.00
2022-09-18T19:24:34.083Z,100.00
2022-09-18T19:27:03.989Z,100.00
2022-09-18T19:29:34.191Z,100.00
2022-09-18T19:32:03.817Z,100.00
2022-09-18T19:34:33.475Z,100.00
2022-09-18T19:37:02.792Z,100.00
2022-09-18T19:39:32.152Z,100.00
2022-09-18T19:42:12.171Z,100.00
2022-09-18T19:44:47.246Z,100.00
2022-09-18T19:47:21.817Z,100.00
2022-09-18T19:49:51.629Z,100.00
2022-09-18T19:52:22.942Z,100.00
2022-09-18T19:54:54.524Z,100.00
2022-09-18T19:57:24.425Z,100.00
2022-09-18T19:59:54.340Z,100.00
2022-09-18T20:02:24.500Z,100.00
2022-09-18T20:04:53.864Z,100.00
2022-09-18T20:07:23.069Z,100.00
2022-09-18T20:09:52.605Z,100.00
2022-09-18T20:12:22.292Z,100.00
2022-09-18T20:14:51.659Z,100.00
2022-09-18T20:17:20.943Z,100.00
2022-09-18T20:19:50.239Z,100.00
2022-09-18T20:22:19.501Z,100.00
2022-09-18T20:24:48.856Z,100.00
2022-09-18T20:27:18.160Z,100.00
2022-09-18T20:29:47.725Z,100.00
2022-09-18T20:32:17.262Z,100.00
2022-09-18T20:34:47.989Z,100.00
2022-09-18T20:37:17.345Z,100.00
2022-09-18T20:39:46.862Z,100.00
2022-09-18T20:42:16.274Z,100.00
2022-09-18T20:44:46.013Z,100.00
2022-09-18T20:47:16.075Z,100.00
2022-09-18T20:49:46.059Z,100.00
2022-09-18T20:52:18.320Z,100.00
2022-09-18T20:54:49.226Z,100.00
2022-09-18T20:57:18.841Z,100.00
2022-09-18T20:59:48.060Z,100.00
2022-09-18T21:02:18.631Z,100.00
2022-09-18T21:04:51.284Z,100.00
2022-09-18T21:07:21.313Z,100.00
2022-09-18T21:09:50.701Z,100.00
2022-09-18T21:12:19.938Z,100.00
2022-09-18T21:14:49.294Z,100.00
2022-09-18T21:17:18.568Z,100.00
2022-09-18T21:19:50.560Z,100.00
2022-09-18T21:22:18.866Z,100.00
2022-09-18T21:24:48.197Z,100.00
2022-09-18T21:27:17.506Z,100.00
2022-09-18T21:29:46.809Z,100.00
2022-09-18T21:32:16.088Z,100.00
2022-09-18T21:34:46.140Z,100.00
2022-09-18T21:37:15.488Z,100.00
2022-09-18T21:39:44.731Z,100.00
2022-09-18T21:42:15.698Z,100.00
2022-09-18T21:44:45.680Z,100.00
2022-09-18T21:47:15.093Z,100.00
2022-09-18T21:49:44.394Z,100.00
2022-09-18T21:52:14.703Z,100.00
2022-09-18T21:54:44.218Z,100.00
2022-09-18T21:57:14.130Z,100.00
2022-09-18T21:59:43.800Z,100.00
2022-09-18T22:02:13.776Z,100.00
2022-09-18T22:04:44.049Z,100.00
2022-09-18T22:07:13.572Z,100.00
2022-09-18T22:09:43.827Z,100.00
2022-09-18T22:12:13.157Z,100.00
2022-09-18T22:14:45.473Z,100.00
2022-09-18T22:17:17.651Z,100.00
2022-09-18T22:19:46.968Z,100.00
2022-09-18T22:22:16.298Z,100.00
2022-09-18T22:24:45.588Z,100.00
2022-09-18T22:27:15.478Z,100.00
2022-09-18T22:29:44.755Z,100.00
2022-09-18T22:32:14.231Z,100.00
2022-09-18T22:34:43.465Z,100.00
2022-09-18T22:37:12.898Z,100.00
2022-09-18T22:39:42.148Z,100.00
2022-09-18T22:42:11.468Z,100.00
2022-09-18T22:44:40.692Z,100.00
2022-09-18T22:47:09.989Z,100.00
2022-09-18T22:49:39.340Z,100.00
2022-09-18T22:52:09.698Z,100.00
2022-09-18T22:54:38.932Z,100.00
2022-09-18T22:57:08.422Z,100.00
2022-09-18T22:59:37.611Z,100.00
2022-09-18T23:02:08.074Z,100.00
2022-09-18T23:04:38.254Z,100.00
2022-09-18T23:07:07.624Z,100.00
2022-09-18T23:09:36.927Z,100.00
2022-09-18T23:12:06.630Z,100.00
2022-09-18T23:14:36.082Z,100.00
2022-09-18T23:17:05.335Z,100.00
2022-09-18T23:19:35.489Z,100.00
2022-09-18T23:22:05.117Z,100.00
2022-09-18T23:24:34.494Z,100.00
2022-09-18T23:27:03.832Z,100.00
2022-09-18T23:29:33.343Z,100.00
2022-09-18T23:32:04.893Z,100.00
2022-09-18T23:34:34.448Z,100.00
2022-09-18T23:37:03.995Z,100.00
2022-09-18T23:39:36.006Z,100.00
2022-09-18T23:42:06.368Z,100.00
2022-09-18T23:44:36.142Z,100.00
2022-09-18T23:47:05.722Z,100.00
2022-09-18T23:49:35.336Z,100.00
2022-09-18T23:52:04.892Z,100.00
2022-09-18T23:54:34.255Z,100.00
2022-09-18T23:57:03.683Z,100.00
2022-09-18T23:59:33.087Z,100.00
